createdAt,value
2017-07-27T00:00:37.794Z,99.99
2017-07-27T00:01:46.677Z,99.99
2017-07-27T00:02:55.885Z,99.99
2017-07-27T00:04:05.746Z,99.99
2017-07-27T00:05:15.277Z,99.99
2017-07-27T00:06:24.793Z,99.99
2017-07-27T00:07:33.692Z,99.99
2017-07-27T00:08:43.551Z,99.99
2017-07-27T00:09:53.077Z,99.99
2017-07-27T00:11:02.606Z,99.99
2017-07-27T00:12:12.188Z,99.99
2017-07-27T00:13:21.722Z,99.99
2017-07-27T00:14:30.806Z,99.99
2017-07-27T00:15:40.338Z,99.99
2017-07-27T00:16:49.919Z,99.99
2017-07-27T00:17:58.950Z,99.99
2017-07-27T00:19:08.481Z,99.99
2017-07-27T00:20:18.002Z,99.99
2017-07-27T00:21:27.537Z,99.99
2017-07-27T00:22:36.749Z,99.99
2017-07-27T00:23:46.109Z,99.99
2017-07-27T00:24:54.994Z,99.99
2017-07-27T00:26:04.844Z,99.99
2017-07-27T00:27:13.728Z,99.99
2017-07-27T00:28:23.260Z,99.99
2017-07-27T00:29:32.837Z,99.99
2017-07-27T00:30:42.047Z,99.99
2017-07-27T00:31:50.935Z,99.99
2017-07-27T00:33:00.460Z,99.99
2017-07-27T00:34:09.348Z,99.99
2017-07-27T00:35:18.661Z,99.99
2017-07-27T00:36:27.546Z,99.99
2017-07-27T00:37:36.753Z,99.99
2017-07-27T00:38:45.956Z,99.99
2017-07-27T00:39:54.836Z,99.99
2017-07-27T00:41:04.200Z,99.99
2017-07-27T00:42:13.732Z,99.99
2017-07-27T00:43:22.947Z,99.99
2017-07-27T00:44:32.801Z,99.99
2017-07-27T00:45:42.330Z,99.99
2017-07-27T00:46:51.369Z,99.99
2017-07-27T00:48:00.907Z,99.99
2017-07-27T00:49:10.462Z,99.99
2017-07-27T00:50:19.669Z,99.99
2017-07-27T00:51:28.555Z,99.99
2017-07-27T00:52:38.406Z,99.99
2017-07-27T00:53:47.936Z,99.99
2017-07-27T00:54:56.817Z,99.99
2017-07-27T00:56:06.681Z,99.99
2017-07-27T00:57:16.216Z,99.99
2017-07-27T00:58:25.197Z,99.99
2017-07-27T00:59:34.400Z,99.99
2017-07-27T01:00:43.603Z,99.99
2017-07-27T01:01:52.812Z,99.99
2017-07-27T01:03:02.024Z,99.99
2017-07-27T01:04:11.752Z,99.99
2017-07-27T01:05:20.966Z,99.99
2017-07-27T01:06:30.496Z,99.99
2017-07-27T01:07:40.364Z,99.99
2017-07-27T01:08:49.591Z,99.99
2017-07-27T01:09:59.167Z,99.99
2017-07-27T01:11:08.695Z,99.99
2017-07-27T01:12:18.235Z,99.99
2017-07-27T01:13:27.770Z,99.99
2017-07-27T01:14:37.635Z,99.99
2017-07-27T01:15:47.638Z,99.99
2017-07-27T01:16:56.840Z,99.99
2017-07-27T01:18:06.371Z,99.99
2017-07-27T01:19:15.257Z,99.99
2017-07-27T01:20:24.464Z,99.99
2017-07-27T01:21:34.042Z,99.99
2017-07-27T01:22:42.925Z,99.99
2017-07-27T01:23:52.133Z,99.99
2017-07-27T01:25:01.984Z,99.99
2017-07-27T01:26:11.516Z,99.99
2017-07-27T01:27:20.836Z,99.99
2017-07-27T01:28:30.366Z,99.99
2017-07-27T01:29:39.894Z,99.99
2017-07-27T01:30:49.423Z,99.99
2017-07-27T01:31:58.964Z,99.99
2017-07-27T01:33:08.903Z,99.99
2017-07-27T01:34:18.111Z,99.99
2017-07-27T01:35:27.641Z,99.99
2017-07-27T01:36:36.847Z,99.99
2017-07-27T01:37:46.051Z,99.99
2017-07-27T01:38:56.376Z,99.99
2017-07-27T01:40:05.959Z,99.99
2017-07-27T01:41:15.813Z,99.99
2017-07-27T01:42:25.991Z,99.99
2017-07-27T01:43:35.521Z,99.99
2017-07-27T01:44:45.854Z,99.99
2017-07-27T01:45:55.386Z,99.99
2017-07-27T01:47:04.915Z,99.99
2017-07-27T01:48:13.797Z,99.99
2017-07-27T01:49:23.002Z,99.99
2017-07-27T01:50:33.155Z,99.99
2017-07-27T01:51:42.359Z,99.99
2017-07-27T01:52:51.564Z,99.99
2017-07-27T01:54:01.107Z,99.99
2017-07-27T01:55:10.316Z,99.99
2017-07-27T01:56:20.052Z,99.99
2017-07-27T01:57:30.227Z,99.99
2017-07-27T01:58:39.110Z,99.99
2017-07-27T01:59:48.640Z,99.99
2017-07-27T02:00:58.171Z,99.99
2017-07-27T02:02:08.003Z,99.99
2017-07-27T02:03:17.212Z,99.99
2017-07-27T02:04:26.100Z,99.99
2017-07-27T02:05:35.952Z,99.99
2017-07-27T02:06:45.158Z,99.99
2017-07-27T02:07:54.097Z,99.99
2017-07-27T02:09:03.630Z,99.99
2017-07-27T02:10:13.492Z,99.99
2017-07-27T02:11:22.704Z,99.99
2017-07-27T02:12:32.237Z,99.99
2017-07-27T02:13:41.744Z,99.99
2017-07-27T02:14:51.268Z,99.99
2017-07-27T02:16:00.152Z,99.99
2017-07-27T02:17:09.686Z,99.99
2017-07-27T02:18:18.899Z,99.99
2017-07-27T02:19:28.855Z,99.99
2017-07-27T02:20:38.384Z,99.99
2017-07-27T02:21:48.241Z,99.99
2017-07-27T02:22:58.098Z,99.99
2017-07-27T02:24:07.956Z,99.99
2017-07-27T02:25:17.682Z,99.99
2017-07-27T02:26:26.886Z,99.99
2017-07-27T02:27:36.417Z,99.99
2017-07-27T02:28:45.299Z,99.99
2017-07-27T02:29:54.203Z,99.99
2017-07-27T02:31:03.736Z,99.99
2017-07-27T02:32:13.589Z,99.99
2017-07-27T02:33:23.119Z,99.99
2017-07-27T02:34:32.650Z,99.99
2017-07-27T02:35:41.863Z,99.99
2017-07-27T02:36:51.062Z,99.99
2017-07-27T02:38:00.648Z,99.99
2017-07-27T02:39:10.834Z,99.99
2017-07-27T02:40:20.688Z,99.99
2017-07-27T02:41:30.216Z,99.99
2017-07-27T02:42:39.744Z,99.99
2017-07-27T02:43:48.948Z,99.99
2017-07-27T02:44:58.477Z,99.99
2017-07-27T02:46:07.684Z,99.99
2017-07-27T02:47:16.897Z,99.99
2017-07-27T02:48:26.729Z,99.99
2017-07-27T02:49:35.936Z,99.99
2017-07-27T02:50:45.142Z,99.99
2017-07-27T02:51:54.673Z,99.99
2017-07-27T02:53:04.535Z,99.99
2017-07-27T02:54:13.790Z,99.99
2017-07-27T02:55:23.322Z,99.99
2017-07-27T02:56:32.851Z,99.99
2017-07-27T02:57:41.734Z,99.99
2017-07-27T02:58:50.945Z,99.99
2017-07-27T03:00:00.300Z,99.99
2017-07-27T03:01:10.156Z,99.99
2017-07-27T03:02:19.369Z,99.99
2017-07-27T03:03:28.580Z,99.99
2017-07-27T03:04:37.469Z,99.99
2017-07-27T03:05:46.727Z,99.99
2017-07-27T03:06:55.947Z,99.99
2017-07-27T03:08:05.797Z,99.99
2017-07-27T03:09:14.680Z,99.99
2017-07-27T03:10:23.569Z,99.99
2017-07-27T03:11:33.540Z,99.99
2017-07-27T03:12:42.755Z,99.99
2017-07-27T03:13:51.635Z,99.99
2017-07-27T03:15:01.174Z,99.99
2017-07-27T03:16:11.030Z,99.99
2017-07-27T03:17:20.910Z,99.99
2017-07-27T03:18:30.117Z,99.99
2017-07-27T03:19:39.323Z,99.99
2017-07-27T03:20:48.576Z,99.99
2017-07-27T03:21:57.784Z,99.99
2017-07-27T03:23:07.689Z,99.99
2017-07-27T03:24:16.574Z,99.99
2017-07-27T03:25:26.104Z,99.99
2017-07-27T03:26:35.960Z,99.99
2017-07-27T03:27:45.812Z,99.99
2017-07-27T03:28:54.695Z,99.99
2017-07-27T03:30:04.232Z,99.99
2017-07-27T03:31:14.098Z,99.99
2017-07-27T03:32:23.636Z,99.99
2017-07-27T03:33:33.170Z,99.99
2017-07-27T03:34:42.426Z,99.99
2017-07-27T03:35:51.633Z,99.99
2017-07-27T03:37:01.488Z,99.99
2017-07-27T03:38:11.013Z,99.99
2017-07-27T03:39:19.893Z,99.99
2017-07-27T03:40:29.301Z,99.99
2017-07-27T03:41:38.835Z,99.99
2017-07-27T03:42:48.042Z,99.99
2017-07-27T03:43:57.248Z,99.99
2017-07-27T03:45:06.456Z,99.99
2017-07-27T03:46:15.964Z,99.99
2017-07-27T03:47:24.844Z,99.99
2017-07-27T03:48:34.047Z,99.99
2017-07-27T03:49:43.261Z,99.99
2017-07-27T03:50:52.789Z,99.99
2017-07-27T03:52:02.149Z,99.99
2017-07-27T03:53:11.676Z,99.99
2017-07-27T03:54:21.204Z,99.99
2017-07-27T03:55:30.738Z,99.99
2017-07-27T03:56:39.626Z,99.99
2017-07-27T03:57:49.531Z,99.99
2017-07-27T03:58:58.417Z,99.99
2017-07-27T04:00:07.624Z,99.99
2017-07-27T04:01:16.829Z,99.99
2017-07-27T04:02:25.706Z,99.99
2017-07-27T04:03:35.236Z,99.99
2017-07-27T04:04:44.770Z,99.99
2017-07-27T04:05:54.302Z,99.99
2017-07-27T04:07:04.480Z,99.99
2017-07-27T04:08:14.008Z,99.99
2017-07-27T04:09:23.514Z,99.99
2017-07-27T04:10:32.396Z,99.99
2017-07-27T04:11:41.600Z,99.99
2017-07-27T04:12:50.808Z,99.99
2017-07-27T04:14:00.659Z,99.99
2017-07-27T04:15:10.540Z,99.99
2017-07-27T04:16:20.069Z,99.99
2017-07-27T04:17:29.270Z,99.99
2017-07-27T04:18:38.150Z,99.99
2017-07-27T04:19:48.013Z,99.99
2017-07-27T04:20:57.664Z,99.99
2017-07-27T04:22:07.211Z,99.99
2017-07-27T04:23:16.423Z,99.99
2017-07-27T04:24:25.635Z,99.99
2017-07-27T04:25:35.164Z,99.99
2017-07-27T04:26:44.846Z,99.99
2017-07-27T04:27:53.728Z,99.99
2017-07-27T04:29:02.931Z,99.99
2017-07-27T04:30:12.460Z,99.99
2017-07-27T04:31:21.986Z,99.99
2017-07-27T04:32:31.964Z,99.99
2017-07-27T04:33:40.853Z,99.99
2017-07-27T04:34:49.740Z,99.99
2017-07-27T04:35:58.623Z,99.99
2017-07-27T04:37:08.153Z,99.99
2017-07-27T04:38:17.785Z,99.99
2017-07-27T04:39:27.318Z,99.99
2017-07-27T04:40:37.179Z,99.99
2017-07-27T04:41:46.712Z,99.99
2017-07-27T04:42:56.570Z,99.99
2017-07-27T04:44:05.927Z,99.99
2017-07-27T04:45:15.456Z,99.99
2017-07-27T04:46:24.666Z,99.99
2017-07-27T04:47:33.553Z,99.99
2017-07-27T04:48:42.764Z,99.99
2017-07-27T04:49:51.968Z,99.99
2017-07-27T04:51:01.172Z,99.99
2017-07-27T04:52:10.706Z,99.99
2017-07-27T04:53:20.237Z,99.99
2017-07-27T04:54:30.092Z,99.99
2017-07-27T04:55:39.297Z,99.99
2017-07-27T04:56:49.150Z,99.99
2017-07-27T04:57:58.033Z,99.99
2017-07-27T04:59:07.566Z,99.99
2017-07-27T05:00:16.804Z,99.99
2017-07-27T05:01:26.163Z,99.99
2017-07-27T05:02:35.370Z,99.99
2017-07-27T05:03:44.909Z,99.99
2017-07-27T05:04:53.793Z,99.99
2017-07-27T05:06:03.001Z,99.99
2017-07-27T05:07:12.740Z,99.99
2017-07-27T05:08:22.279Z,99.99
2017-07-27T05:09:31.811Z,99.99
2017-07-27T05:10:41.014Z,99.99
2017-07-27T05:11:50.222Z,99.99
2017-07-27T05:12:59.756Z,99.99
2017-07-27T05:14:09.613Z,99.99
2017-07-27T05:15:18.818Z,99.99
2017-07-27T05:16:28.348Z,99.99
2017-07-27T05:17:37.881Z,99.99
2017-07-27T05:18:47.786Z,99.99
2017-07-27T05:19:57.316Z,99.99
2017-07-27T05:21:07.182Z,99.99
2017-07-27T05:22:16.390Z,99.99
2017-07-27T05:23:25.270Z,99.99
2017-07-27T05:24:34.478Z,99.99
2017-07-27T05:25:44.008Z,99.99
2017-07-27T05:26:53.213Z,99.99
2017-07-27T05:28:02.421Z,99.99
2017-07-27T05:29:11.955Z,99.99
2017-07-27T05:30:21.270Z,99.99
2017-07-27T05:31:30.801Z,99.99
2017-07-27T05:32:40.657Z,99.99
2017-07-27T05:33:49.864Z,99.99
2017-07-27T05:34:59.396Z,99.99
2017-07-27T05:36:09.164Z,99.99
2017-07-27T05:37:18.374Z,99.99
2017-07-27T05:38:27.592Z,99.99
2017-07-27T05:39:37.128Z,99.99
2017-07-27T05:40:46.009Z,99.99
2017-07-27T05:41:55.602Z,99.99
2017-07-27T05:43:04.818Z,99.99
2017-07-27T05:44:14.363Z,99.99
2017-07-27T05:45:23.578Z,99.99
2017-07-27T05:46:32.791Z,99.99
2017-07-27T05:47:42.012Z,99.99
2017-07-27T05:48:52.197Z,99.99
2017-07-27T05:50:01.736Z,99.99
2017-07-27T05:51:11.916Z,99.99
2017-07-27T05:52:20.801Z,99.99
2017-07-27T05:53:30.258Z,99.99
2017-07-27T05:54:39.470Z,99.99
2017-07-27T05:55:48.687Z,99.99
2017-07-27T05:56:57.580Z,99.99
2017-07-27T05:58:06.787Z,99.99
2017-07-27T05:59:16.423Z,99.99
2017-07-27T06:00:25.957Z,99.99
2017-07-27T06:01:34.843Z,99.99
2017-07-27T06:02:44.389Z,99.99
2017-07-27T06:03:53.923Z,99.99
2017-07-27T06:05:03.231Z,99.99
2017-07-27T06:06:12.779Z,99.99
2017-07-27T06:07:22.316Z,99.99
2017-07-27T06:08:32.495Z,99.99
2017-07-27T06:09:41.704Z,99.99
2017-07-27T06:10:50.964Z,99.99
2017-07-27T06:11:59.846Z,99.99
2017-07-27T06:13:09.699Z,99.99
2017-07-27T06:14:19.237Z,99.99
2017-07-27T06:15:29.418Z,99.99
2017-07-27T06:16:38.954Z,99.99
2017-07-27T06:17:48.484Z,99.99
2017-07-27T06:18:57.692Z,99.99
2017-07-27T06:20:06.973Z,99.99
2017-07-27T06:21:16.505Z,99.99
2017-07-27T06:22:25.766Z,99.99
2017-07-27T06:23:34.976Z,99.99
2017-07-27T06:24:44.558Z,99.99
2017-07-27T06:25:55.069Z,99.99
2017-07-27T06:27:04.605Z,99.99
2017-07-27T06:28:14.787Z,99.99
2017-07-27T06:29:23.679Z,99.99
2017-07-27T06:30:32.926Z,99.99
2017-07-27T06:31:42.466Z,99.99
2017-07-27T06:32:51.997Z,99.99
2017-07-27T06:34:01.212Z,99.99
2017-07-27T06:35:11.047Z,99.99
2017-07-27T06:36:20.275Z,99.99
2017-07-27T06:37:29.807Z,99.99
2017-07-27T06:38:39.988Z,99.99
2017-07-27T06:39:49.533Z,99.99
2017-07-27T06:40:59.089Z,99.99
2017-07-27T06:42:08.633Z,99.99
2017-07-27T06:43:18.719Z,99.99
2017-07-27T06:44:27.927Z,99.99
2017-07-27T06:45:37.139Z,99.99
2017-07-27T06:46:46.998Z,99.99
2017-07-27T06:47:56.530Z,99.99
2017-07-27T06:49:05.441Z,99.99
2017-07-27T06:50:14.657Z,99.99
2017-07-27T06:51:24.193Z,99.99
2017-07-27T06:52:33.747Z,99.99
2017-07-27T06:53:43.281Z,99.99
2017-07-27T06:54:52.488Z,99.99
2017-07-27T06:56:02.027Z,99.99
2017-07-27T06:57:11.559Z,99.99
2017-07-27T06:58:21.101Z,99.99
2017-07-27T06:59:30.786Z,99.99
2017-07-27T07:00:40.653Z,99.99
2017-07-27T07:01:49.536Z,99.99
2017-07-27T07:02:59.069Z,99.99
2017-07-27T07:04:08.600Z,99.99
2017-07-27T07:05:17.818Z,99.99
2017-07-27T07:06:27.025Z,99.99
2017-07-27T07:07:36.560Z,99.99
2017-07-27T07:08:45.778Z,99.99
2017-07-27T07:09:55.309Z,99.99
2017-07-27T07:11:04.402Z,99.99
2017-07-27T07:12:13.935Z,99.99
2017-07-27T07:13:23.152Z,99.99
2017-07-27T07:14:32.362Z,99.99
2017-07-27T07:15:42.246Z,99.99
2017-07-27T07:16:51.467Z,99.99
2017-07-27T07:18:01.333Z,99.99
2017-07-27T07:19:10.542Z,99.99
2017-07-27T07:20:20.400Z,99.99
2017-07-27T07:21:30.594Z,99.99
2017-07-27T07:22:40.278Z,99.99
2017-07-27T07:23:49.488Z,99.99
2017-07-27T07:24:58.696Z,99.99
2017-07-27T07:26:08.230Z,99.99
2017-07-27T07:27:17.766Z,99.99
2017-07-27T07:28:27.501Z,99.99
2017-07-27T07:29:37.037Z,99.99
2017-07-27T07:30:46.594Z,99.99
2017-07-27T07:31:56.129Z,99.99
2017-07-27T07:33:05.337Z,99.99
2017-07-27T07:34:15.169Z,99.99
2017-07-27T07:35:24.718Z,99.99
2017-07-27T07:36:33.932Z,99.99
2017-07-27T07:37:44.114Z,99.99
2017-07-27T07:38:53.652Z,99.99
2017-07-27T07:40:02.642Z,99.99
2017-07-27T07:41:12.517Z,99.99
2017-07-27T07:42:21.729Z,99.99
2017-07-27T07:43:31.262Z,99.99
2017-07-27T07:44:40.799Z,99.99
2017-07-27T07:45:49.837Z,99.99
2017-07-27T07:46:59.705Z,99.99
2017-07-27T07:48:09.590Z,99.99
2017-07-27T07:49:19.445Z,99.99
2017-07-27T07:50:28.985Z,99.99
2017-07-27T07:51:38.682Z,99.99
2017-07-27T07:52:47.892Z,99.99
2017-07-27T07:53:58.085Z,99.99
2017-07-27T07:55:08.263Z,99.99
2017-07-27T07:56:17.476Z,99.99
2017-07-27T07:57:27.751Z,99.99
2017-07-27T07:58:37.344Z,99.99
2017-07-27T07:59:46.886Z,99.99
2017-07-27T08:00:56.512Z,99.99
2017-07-27T08:02:05.731Z,99.99
2017-07-27T08:03:15.761Z,99.99
2017-07-27T08:04:25.298Z,99.99
2017-07-27T08:05:34.830Z,99.99
2017-07-27T08:06:44.372Z,99.99
2017-07-27T08:07:53.260Z,99.99
2017-07-27T08:09:03.119Z,99.99
2017-07-27T08:10:12.329Z,99.99
2017-07-27T08:11:22.193Z,99.99
2017-07-27T08:12:31.405Z,99.99
2017-07-27T08:13:41.308Z,99.99
2017-07-27T08:14:50.583Z,99.99
2017-07-27T08:16:00.441Z,99.99
2017-07-27T08:17:09.652Z,99.99
2017-07-27T08:18:18.871Z,99.99
2017-07-27T08:19:28.728Z,99.99
2017-07-27T08:20:38.243Z,99.99
2017-07-27T08:21:47.795Z,99.99
2017-07-27T08:22:57.336Z,99.99
2017-07-27T08:24:06.881Z,99.99
2017-07-27T08:25:17.077Z,99.99
2017-07-27T08:26:26.939Z,99.99
2017-07-27T08:27:37.131Z,99.99
2017-07-27T08:28:46.024Z,99.99
2017-07-27T08:29:56.209Z,99.99
2017-07-27T08:31:06.410Z,99.99
2017-07-27T08:32:16.100Z,99.99
2017-07-27T08:33:25.310Z,99.99
2017-07-27T08:34:34.536Z,99.99
2017-07-27T08:35:44.085Z,99.99
2017-07-27T08:36:53.303Z,99.99
2017-07-27T08:38:03.273Z,99.99
2017-07-27T08:39:13.141Z,99.99
2017-07-27T08:40:22.682Z,99.99
2017-07-27T08:41:32.230Z,99.99
2017-07-27T08:42:41.761Z,99.99
2017-07-27T08:43:51.445Z,99.99
2017-07-27T08:45:01.950Z,99.99
2017-07-27T08:46:11.485Z,99.99
2017-07-27T08:47:21.020Z,99.99
2017-07-27T08:48:30.876Z,99.99
2017-07-27T08:49:40.136Z,99.99
2017-07-27T08:50:49.348Z,99.99
2017-07-27T08:51:58.887Z,99.99
2017-07-27T08:53:08.096Z,99.21
2017-07-27T08:54:17.633Z,99.4
2017-07-27T08:55:27.164Z,99.16
2017-07-27T08:56:36.053Z,99.21
2017-07-27T08:57:45.263Z,99.45
2017-07-27T08:58:54.481Z,99.55
2017-07-27T09:00:03.366Z,98.77
2017-07-27T09:01:13.230Z,97.04
2017-07-27T09:02:22.121Z,97.24
2017-07-27T09:03:31.335Z,95.11
2017-07-27T09:04:40.550Z,93.28
2017-07-27T09:05:49.762Z,94.44
2017-07-27T09:06:59.454Z,94.06
2017-07-27T09:08:08.352Z,94.44
2017-07-27T09:09:17.570Z,93.86
2017-07-27T09:10:26.788Z,93.28
2017-07-27T09:11:36.321Z,94.24
2017-07-27T09:12:45.579Z,91.93
2017-07-27T09:13:54.787Z,92.51
2017-07-27T09:15:04.332Z,93.09
2017-07-27T09:16:13.543Z,92.99
2017-07-27T09:17:22.757Z,92.9
2017-07-27T09:18:32.117Z,92.32
2017-07-27T09:19:41.326Z,91.93
2017-07-27T09:20:51.508Z,92.13
2017-07-27T09:22:00.409Z,92.8
2017-07-27T09:23:09.635Z,90.92
2017-07-27T09:24:18.522Z,91.2
2017-07-27T09:25:28.069Z,91.36
2017-07-27T09:26:36.959Z,90.05
2017-07-27T09:27:45.845Z,91.26
2017-07-27T09:28:55.056Z,91.55
2017-07-27T09:30:04.892Z,91.16
2017-07-27T09:31:14.433Z,91.36
2017-07-27T09:32:23.650Z,90.48
2017-07-27T09:33:33.184Z,90.53
2017-07-27T09:34:42.415Z,90.92
2017-07-27T09:35:51.777Z,90.3
2017-07-27T09:37:01.631Z,90.53
2017-07-27T09:38:11.173Z,90.05
2017-07-27T09:39:20.707Z,89.81
2017-07-27T09:40:29.913Z,90.58
2017-07-27T09:41:39.652Z,91.36
2017-07-27T09:42:49.517Z,90.63
2017-07-27T09:43:58.729Z,91.3
2017-07-27T09:45:08.593Z,90.72
2017-07-27T09:46:18.126Z,91.02
2017-07-27T09:47:27.816Z,90.92
2017-07-27T09:48:37.036Z,89.76
2017-07-27T09:49:46.260Z,90.39
2017-07-27T09:50:56.445Z,89.86
2017-07-27T09:52:05.979Z,90.53
2017-07-27T09:53:15.993Z,91.2
2017-07-27T09:54:24.882Z,91.11
2017-07-27T09:55:34.089Z,90.24
2017-07-27T09:56:43.300Z,88.89
2017-07-27T09:57:52.844Z,89.18
2017-07-27T09:59:02.830Z,89.37
2017-07-27T10:00:12.367Z,89.76
2017-07-27T10:01:22.227Z,90.82
2017-07-27T10:02:31.770Z,89.28
2017-07-27T10:03:40.982Z,89.57
2017-07-27T10:04:50.119Z,89.76
2017-07-27T10:05:59.352Z,89.95
2017-07-27T10:07:09.212Z,89.37
2017-07-27T10:08:18.422Z,88.99
2017-07-27T10:09:27.966Z,88.22
2017-07-27T10:10:37.330Z,88.51
2017-07-27T10:11:47.840Z,89.57
2017-07-27T10:12:57.050Z,90.15
2017-07-27T10:14:06.266Z,88.22
2017-07-27T10:15:15.804Z,88.6
2017-07-27T10:16:25.019Z,87.93
2017-07-27T10:17:34.234Z,88.85
2017-07-27T10:18:43.454Z,88.89
2017-07-27T10:19:52.991Z,89.37
2017-07-27T10:21:01.881Z,89.76
2017-07-27T10:22:11.563Z,89.76
2017-07-27T10:23:21.106Z,89.95
2017-07-27T10:24:30.321Z,89.47
2017-07-27T10:25:40.199Z,89.09
2017-07-27T10:26:49.734Z,88.89
2017-07-27T10:27:58.824Z,88.31
2017-07-27T10:29:08.689Z,87.06
2017-07-27T10:30:18.552Z,86.19
2017-07-27T10:31:27.446Z,86.39
2017-07-27T10:32:36.656Z,86.87
2017-07-27T10:33:46.642Z,86.19
2017-07-27T10:34:55.531Z,85.94
2017-07-27T10:36:04.743Z,86.04
2017-07-27T10:37:13.956Z,86.14
2017-07-27T10:38:22.852Z,86.14
2017-07-27T10:39:32.291Z,85.08
2017-07-27T10:40:41.829Z,85.75
2017-07-27T10:41:51.720Z,86.24
2017-07-27T10:43:00.935Z,85.37
2017-07-27T10:44:10.827Z,85.37
2017-07-27T10:45:20.138Z,85.8
2017-07-27T10:46:29.355Z,83.67
2017-07-27T10:47:38.894Z,83.77
2017-07-27T10:48:47.783Z,82.71
2017-07-27T10:49:57.005Z,83.77
2017-07-27T10:51:06.371Z,81.93
2017-07-27T10:52:16.235Z,81.45
2017-07-27T10:53:25.771Z,81.35
2017-07-27T10:54:35.636Z,82.23
2017-07-27T10:55:45.177Z,81.35
2017-07-27T10:56:54.386Z,81.16
2017-07-27T10:58:03.924Z,80.58
2017-07-27T10:59:13.464Z,80.93
2017-07-27T11:00:22.997Z,81.02
2017-07-27T11:01:32.528Z,81.41
2017-07-27T11:02:42.171Z,81.22
2017-07-27T11:03:51.386Z,81.41
2017-07-27T11:05:01.571Z,80.54
2017-07-27T11:06:11.121Z,81.22
2017-07-27T11:07:20.331Z,81.51
2017-07-27T11:08:29.793Z,80.83
2017-07-27T11:09:38.680Z,81.32
2017-07-27T11:10:47.899Z,82.18
2017-07-27T11:11:57.110Z,81.51
2017-07-27T11:13:06.654Z,81.12
2017-07-27T11:14:16.757Z,80.54
2017-07-27T11:15:26.289Z,80.64
2017-07-27T11:16:36.146Z,80.54
2017-07-27T11:17:45.358Z,79.87
2017-07-27T11:18:54.305Z,80.35
2017-07-27T11:20:03.855Z,80.64
2017-07-27T11:21:12.745Z,81.07
2017-07-27T11:22:22.609Z,79.43
2017-07-27T11:23:32.143Z,79.43
2017-07-27T11:24:41.689Z,79.58
2017-07-27T11:25:51.287Z,80.26
2017-07-27T11:27:00.504Z,78.85
2017-07-27T11:28:10.043Z,77.4
2017-07-27T11:29:19.581Z,77.75
2017-07-27T11:30:28.472Z,77.11
2017-07-27T11:31:37.357Z,77.69
2017-07-27T11:32:46.244Z,76.24
2017-07-27T11:33:55.162Z,75.57
2017-07-27T11:35:05.047Z,74.79
2017-07-27T11:36:14.581Z,76.4
2017-07-27T11:37:23.951Z,74.85
2017-07-27T11:38:33.487Z,75.14
2017-07-27T11:39:43.352Z,75.14
2017-07-27T11:40:53.216Z,76.2
2017-07-27T11:42:02.752Z,75.53
2017-07-27T11:43:12.263Z,76.15
2017-07-27T11:44:21.478Z,75.27
2017-07-27T11:45:31.346Z,75.76
2017-07-27T11:46:40.236Z,76.01
2017-07-27T11:47:50.100Z,75.85
2017-07-27T11:48:59.687Z,77.46
2017-07-27T11:50:09.241Z,77.4
2017-07-27T11:51:18.455Z,76.15
2017-07-27T11:52:27.666Z,76.92
2017-07-27T11:53:37.202Z,76.82
2017-07-27T11:54:46.891Z,75.27
2017-07-27T11:55:55.777Z,76.24
2017-07-27T11:57:05.311Z,76.24
2017-07-27T11:58:14.849Z,77.69
2017-07-27T11:59:24.399Z,75.67
2017-07-27T12:00:33.806Z,74.69
2017-07-27T12:01:43.341Z,75.18
2017-07-27T12:02:52.882Z,76.24
2017-07-27T12:04:03.067Z,75.85
2017-07-27T12:05:12.277Z,75.99
2017-07-27T12:06:21.960Z,74.83
2017-07-27T12:07:30.849Z,75.02
2017-07-27T12:08:40.392Z,74.93
2017-07-27T12:09:50.257Z,75.12
2017-07-27T12:10:59.477Z,75.64
2017-07-27T12:12:09.499Z,75.16
2017-07-27T12:13:19.050Z,75.16
2017-07-27T12:14:28.622Z,73.13
2017-07-27T12:15:37.840Z,73.94
2017-07-27T12:16:47.387Z,74.04
2017-07-27T12:17:56.716Z,73.78
2017-07-27T12:19:06.269Z,70.92
2017-07-27T12:20:16.466Z,69.95
2017-07-27T12:21:25.685Z,69.92
2017-07-27T12:22:34.578Z,71.56
2017-07-27T12:23:44.592Z,68.82
2017-07-27T12:24:54.155Z,68.24
2017-07-27T12:26:03.374Z,68.82
2017-07-27T12:27:13.568Z,68.17
2017-07-27T12:28:23.442Z,67.27
2017-07-27T12:29:32.385Z,68.82
2017-07-27T12:30:41.609Z,68.62
2017-07-27T12:31:51.472Z,68.24
2017-07-27T12:33:01.018Z,69.24
2017-07-27T12:34:10.570Z,68.62
2017-07-27T12:35:20.789Z,68.66
2017-07-27T12:36:30.660Z,65.37
2017-07-27T12:37:40.200Z,67.11
2017-07-27T12:38:49.412Z,67.36
2017-07-27T12:39:59.296Z,68.72
2017-07-27T12:41:09.324Z,68.24
2017-07-27T12:42:18.552Z,68.14
2017-07-27T12:43:28.092Z,68.27
2017-07-27T12:44:37.315Z,69.4
2017-07-27T12:45:46.209Z,70.46
2017-07-27T12:46:55.581Z,68.04
2017-07-27T12:48:04.798Z,68.08
2017-07-27T12:49:14.337Z,70.1
2017-07-27T12:50:23.553Z,68.85
2017-07-27T12:51:33.421Z,66.72
2017-07-27T12:52:42.702Z,65.85
2017-07-27T12:53:52.273Z,65.95
2017-07-27T12:55:01.813Z,65.27
2017-07-27T12:56:11.031Z,63.43
2017-07-27T12:57:20.253Z,65.85
2017-07-27T12:58:29.473Z,64.62
2017-07-27T12:59:38.373Z,64.14
2017-07-27T13:00:47.595Z,65.59
2017-07-27T13:01:57.475Z,65.4
2017-07-27T13:03:06.708Z,64.04
2017-07-27T13:04:16.740Z,64.85
2017-07-27T13:05:25.965Z,64.66
2017-07-27T13:06:35.507Z,65.88
2017-07-27T13:07:44.718Z,65.14
2017-07-27T13:08:54.266Z,65.14
2017-07-27T13:10:03.735Z,64.14
2017-07-27T13:11:13.277Z,64.75
2017-07-27T13:12:22.821Z,65.24
2017-07-27T13:13:32.042Z,64.75
2017-07-27T13:14:41.255Z,63.98
2017-07-27T13:15:50.622Z,63.79
2017-07-27T13:16:59.523Z,62.82
2017-07-27T13:18:08.757Z,59.91
2017-07-27T13:19:18.625Z,59.23
2017-07-27T13:20:27.847Z,59.89
2017-07-27T13:21:37.736Z,60.95
2017-07-27T13:22:47.601Z,62.3
2017-07-27T13:23:56.816Z,61.43
2017-07-27T13:25:06.034Z,60.85
2017-07-27T13:26:15.588Z,59.23
2017-07-27T13:27:25.333Z,59.43
2017-07-27T13:28:35.203Z,58.27
2017-07-27T13:29:44.425Z,57.79
2017-07-27T13:30:53.322Z,57.79
2017-07-27T13:32:02.899Z,59.14
2017-07-27T13:33:12.867Z,59.53
2017-07-27T13:34:22.746Z,59.14
2017-07-27T13:35:32.942Z,59.82
2017-07-27T13:36:42.513Z,59.82
2017-07-27T13:37:52.079Z,59.05
2017-07-27T13:39:01.465Z,59.59
2017-07-27T13:40:10.704Z,58.72
2017-07-27T13:41:20.582Z,59.11
2017-07-27T13:42:29.476Z,57.37
2017-07-27T13:43:38.697Z,58.34
2017-07-27T13:44:49.050Z,57.86
2017-07-27T13:45:58.590Z,58.82
2017-07-27T13:47:08.138Z,59.05
2017-07-27T13:48:17.356Z,58.85
2017-07-27T13:49:27.222Z,57.88
2017-07-27T13:50:36.603Z,57.69
2017-07-27T13:51:46.146Z,58.85
2017-07-27T13:52:55.360Z,57.2
2017-07-27T13:54:04.585Z,57.66
2017-07-27T13:55:13.796Z,58.92
2017-07-27T13:56:23.454Z,58.92
2017-07-27T13:57:33.319Z,59.01
2017-07-27T13:58:43.175Z,60.4
2017-07-27T13:59:52.394Z,58.24
2017-07-27T14:01:01.612Z,57.46
2017-07-27T14:02:11.534Z,59.21
2017-07-27T14:03:21.401Z,58.82
2017-07-27T14:04:30.938Z,59.01
2017-07-27T14:05:40.800Z,59.5
2017-07-27T14:06:50.339Z,59.89
2017-07-27T14:07:59.855Z,59.98
2017-07-27T14:09:09.756Z,61.15
2017-07-27T14:10:19.293Z,60.47
2017-07-27T14:11:28.184Z,60.75
2017-07-27T14:12:37.400Z,61.43
2017-07-27T14:13:47.153Z,60.75
2017-07-27T14:14:56.364Z,60.37
2017-07-27T14:16:05.906Z,60.27
2017-07-27T14:17:15.769Z,59.31
2017-07-27T14:18:24.988Z,60.85
2017-07-27T14:19:34.349Z,60.63
2017-07-27T14:20:43.565Z,61.72
2017-07-27T14:21:52.462Z,61.43
2017-07-27T14:23:01.681Z,60.75
2017-07-27T14:24:11.215Z,60.34
2017-07-27T14:25:20.628Z,59.76
2017-07-27T14:26:29.517Z,61.02
2017-07-27T14:27:38.742Z,60.92
2017-07-27T14:28:47.638Z,61.21
2017-07-27T14:29:57.501Z,59.95
2017-07-27T14:31:07.140Z,58.98
2017-07-27T14:32:16.350Z,59.95
2017-07-27T14:33:25.888Z,58.8
2017-07-27T14:34:35.433Z,59.47
2017-07-27T14:35:44.651Z,60.34
2017-07-27T14:36:53.546Z,60.63
2017-07-27T14:38:03.101Z,60.63
2017-07-27T14:39:12.317Z,61.6
2017-07-27T14:40:22.184Z,62.18
2017-07-27T14:41:31.076Z,61.98
2017-07-27T14:42:40.724Z,61.21
2017-07-27T14:43:50.262Z,60.27
2017-07-27T14:44:59.797Z,60.08
2017-07-27T14:46:09.662Z,60.75
2017-07-27T14:47:19.518Z,60.37
2017-07-27T14:48:28.881Z,60.27
2017-07-27T14:49:37.780Z,59.79
2017-07-27T14:50:46.680Z,59.95
2017-07-27T14:51:56.870Z,60.72
2017-07-27T14:53:06.731Z,60.72
2017-07-27T14:54:15.623Z,61.3
2017-07-27T14:55:24.842Z,61.5